Lombardville, Illinois
Current Conditions -  °F | °C
As of 7:35 PM on Friday 24 Oct 2014 (Local Time) from KC75 Reporting Station
Broken Clouds Broken Clouds  
Wind Chill: 57°   Ceiling: 4200
Heat Index: 57°   Visibility: 10mi
Dew Point: 48°   Wind: 5mph
Humidity: 71%   Direction: 160°SSE
Pressure: 29.95"   Gusts: NA
Location:  41.1472°N, 89.6399°W
Report Text: KC75 250035Z AUTO 16004KT 10SM BKN042 BKN050 14/09 A2995 RMK AO2 T01410090
Loading
Personal Weather Stations






























Interactive Weather Map New forecast layout! Learn more

10-Day Weather Forecast

Advertisements
Track Severe Weather on mobile